createdAt,value
2018-07-04T00:01:35.275Z,101781.78
2018-07-04T00:04:15.159Z,101780.33
2018-07-04T00:07:01.083Z,101771.61
2018-07-04T00:09:46.779Z,101774.75
2018-07-04T00:12:32.645Z,101769.31
2018-07-04T00:15:18.423Z,101776.81
2018-07-04T00:17:58.254Z,101774.21
2018-07-04T00:20:43.916Z,101767.93
2018-07-04T00:23:29.723Z,101778.00
2018-07-04T00:26:15.579Z,101781.46
2018-07-04T00:29:01.593Z,101782.03
2018-07-04T00:31:47.443Z,101782.27
2018-07-04T00:34:33.476Z,101781.75
2018-07-04T00:37:19.573Z,101771.64
2018-07-04T00:40:05.768Z,101773.14
2018-07-04T00:42:51.437Z,101775.84
2018-07-04T00:45:43.347Z,101772.76
2018-07-04T00:48:29.066Z,101770.03
2018-07-04T00:51:14.803Z,101766.84
2018-07-04T00:53:54.769Z,101774.19
2018-07-04T00:56:40.398Z,101771.74
2018-07-04T00:59:25.942Z,101775.47
2018-07-04T01:02:11.619Z,101782.99
2018-07-04T01:04:57.272Z,101781.06
2018-07-04T01:07:43.015Z,101783.08
2018-07-04T01:10:28.643Z,101788.19
2018-07-04T01:13:14.503Z,101782.83
2018-07-04T01:16:00.154Z,101785.55
2018-07-04T01:18:46.186Z,101783.27
2018-07-04T01:21:31.866Z,101783.24
2018-07-04T01:24:17.660Z,101791.00
2018-07-04T01:27:03.288Z,101801.44
2018-07-04T01:29:43.397Z,101787.50
2018-07-04T01:32:29.118Z,101782.41
2018-07-04T01:35:15.080Z,101787.91
2018-07-04T01:38:00.679Z,101784.40
2018-07-04T01:40:46.759Z,101788.76
2018-07-04T01:43:26.588Z,101787.74
2018-07-04T01:46:12.902Z,101783.09
2018-07-04T01:48:58.452Z,101778.57
2018-07-04T01:51:44.387Z,101778.52
2018-07-04T01:54:30.062Z,101781.23
2018-07-04T01:57:15.862Z,101774.05
2018-07-04T02:00:01.549Z,101773.44
2018-07-04T02:02:47.212Z,101772.07
2018-07-04T02:05:27.003Z,101774.09
2018-07-04T02:08:12.847Z,101776.16
2018-07-04T02:10:58.460Z,101770.88
2018-07-04T02:13:44.648Z,101770.16
2018-07-04T02:16:30.303Z,101774.05
2018-07-04T02:19:16.330Z,101776.96
2018-07-04T02:22:02.147Z,101766.25
2018-07-04T02:24:48.207Z,101774.52
2018-07-04T02:27:33.978Z,101771.67
2018-07-04T02:30:19.788Z,101761.89
2018-07-04T02:33:05.471Z,101755.20
2018-07-04T02:35:51.433Z,101758.79
2018-07-04T02:38:37.253Z,101756.93
2018-07-04T02:41:23.555Z,101754.39
2018-07-04T02:44:09.136Z,101754.44
2018-07-04T02:46:55.231Z,101750.12
2018-07-04T02:49:41.004Z,101755.05
2018-07-04T02:52:27.116Z,101752.05
2018-07-04T02:55:12.714Z,101755.91
2018-07-04T02:57:58.628Z,101755.77
2018-07-04T03:00:44.539Z,101755.59
2018-07-04T03:03:30.216Z,101754.99
2018-07-04T03:06:10.080Z,101749.20
2018-07-04T03:08:56.011Z,101748.65
2018-07-04T03:11:35.879Z,101741.95
2018-07-04T03:14:21.951Z,101747.80
2018-07-04T03:17:07.609Z,101753.70
2018-07-04T03:19:53.641Z,101761.59
2018-07-04T03:22:39.543Z,101756.30
2018-07-04T03:25:25.311Z,101756.05
2018-07-04T03:28:10.868Z,101761.48
2018-07-04T03:30:56.956Z,101763.76
2018-07-04T03:33:42.703Z,101759.74
2018-07-04T03:36:28.687Z,101755.85
2018-07-04T03:39:14.532Z,101755.39
2018-07-04T03:42:00.123Z,101756.66
2018-07-04T03:44:45.657Z,101755.95
2018-07-04T03:47:25.886Z,101747.69
2018-07-04T03:50:11.571Z,101753.73
2018-07-04T03:52:57.563Z,101758.77
2018-07-04T03:55:37.446Z,101752.52
2018-07-04T03:58:23.611Z,101755.76
2018-07-04T04:01:09.412Z,101754.70
2018-07-04T04:03:55.292Z,101749.22
2018-07-04T04:06:35.193Z,101745.09
2018-07-04T04:09:20.820Z,101743.55
2018-07-04T04:12:06.323Z,101746.73
2018-07-04T04:14:52.116Z,101748.66
2018-07-04T04:17:37.890Z,101748.64
2018-07-04T04:20:23.788Z,101752.30
2018-07-04T04:23:09.386Z,101755.23
2018-07-04T04:25:55.356Z,101747.85
2018-07-04T04:28:41.125Z,101753.15
2018-07-04T04:31:27.024Z,101756.29
2018-07-04T04:34:12.803Z,101757.89
2018-07-04T04:36:58.390Z,101759.68
2018-07-04T04:39:44.134Z,101754.18
2018-07-04T04:42:29.904Z,101752.16
2018-07-04T04:45:15.467Z,101755.25
2018-07-04T04:48:01.360Z,101750.66
2018-07-04T04:50:46.941Z,101748.45
2018-07-04T04:53:32.927Z,101754.38
2018-07-04T04:56:18.724Z,101747.38
2018-07-04T04:59:04.709Z,101743.06
2018-07-04T05:01:50.512Z,101741.98
2018-07-04T05:04:36.589Z,101740.76
2018-07-04T05:07:22.100Z,101750.75
2018-07-04T05:10:02.425Z,101748.81
2018-07-04T05:12:48.299Z,101748.05
2018-07-04T05:15:34.308Z,101745.37
2018-07-04T05:18:20.121Z,101747.97
2018-07-04T05:21:06.104Z,101742.73
2018-07-04T05:23:53.128Z,101745.91
2018-07-04T05:26:39.215Z,101749.16
2018-07-04T05:29:25.069Z,101746.78
2018-07-04T05:32:10.955Z,101737.83
2018-07-04T05:34:56.504Z,101747.80
2018-07-04T05:37:42.086Z,101754.51
2018-07-04T05:40:27.472Z,101750.12
2018-07-04T05:43:12.955Z,101747.95
2018-07-04T05:46:04.510Z,101748.28
2018-07-04T05:48:50.101Z,101748.71
2018-07-04T05:51:35.669Z,101746.30
2018-07-04T05:54:21.352Z,101737.69
2018-07-04T05:57:06.927Z,101738.76
2018-07-04T05:59:46.737Z,101732.35
2018-07-04T06:02:32.595Z,101728.41
2018-07-04T06:05:18.110Z,101732.35
2018-07-04T06:08:03.907Z,101732.09
2018-07-04T06:10:49.654Z,101734.09
2018-07-04T06:13:35.384Z,101733.34
2018-07-04T06:16:21.064Z,101730.62
2018-07-04T06:19:06.835Z,101727.48
2018-07-04T06:21:52.422Z,101727.63
2018-07-04T06:24:38.299Z,101727.54
2018-07-04T06:27:24.204Z,101727.98
2018-07-04T06:30:10.033Z,101729.00
2018-07-04T06:32:49.862Z,101733.74
2018-07-04T06:35:35.659Z,101728.78
2018-07-04T06:38:02.577Z,101731.52
2018-07-04T06:40:29.556Z,101731.34
2018-07-04T06:42:56.970Z,101731.24
2018-07-04T06:45:30.128Z,101729.16
2018-07-04T06:47:57.092Z,101717.87
2018-07-04T06:50:24.007Z,101723.30
2018-07-04T06:52:51.109Z,101724.18
2018-07-04T06:55:18.032Z,101728.16
2018-07-04T06:57:44.968Z,101715.77
2018-07-04T07:00:11.940Z,101711.98
2018-07-04T07:02:38.896Z,101715.33
2018-07-04T07:05:24.461Z,101713.55
2018-07-04T07:08:10.092Z,101717.36
2018-07-04T07:10:50.002Z,101713.90
2018-07-04T07:13:35.854Z,101710.67
2018-07-04T07:16:21.686Z,101707.55
2018-07-04T07:19:07.370Z,101711.38
2018-07-04T07:21:53.487Z,101708.12
2018-07-04T07:24:39.263Z,101701.95
2018-07-04T07:27:19.167Z,101701.97
2018-07-04T07:30:04.784Z,101696.56
2018-07-04T07:32:50.537Z,101691.50
2018-07-04T07:35:36.054Z,101689.95
2018-07-04T07:38:21.810Z,101693.61
2018-07-04T07:41:07.559Z,101691.63
2018-07-04T07:43:53.462Z,101686.11
2018-07-04T07:46:39.044Z,101685.90
2018-07-04T07:49:24.679Z,101684.98
2018-07-04T07:52:10.560Z,101678.23
2018-07-04T07:54:56.298Z,101681.08
2018-07-04T07:57:41.884Z,101677.27
2018-07-04T08:00:27.627Z,101669.24
2018-07-04T08:03:13.391Z,101672.36
2018-07-04T08:05:59.043Z,101680.41
2018-07-04T08:08:44.529Z,101668.33
2018-07-04T08:11:30.348Z,101665.73
2018-07-04T08:14:16.103Z,101663.61
2018-07-04T08:17:01.685Z,101662.08
2018-07-04T08:19:47.401Z,101676.16
2018-07-04T08:22:33.060Z,101680.98
2018-07-04T08:25:18.664Z,101677.16
2018-07-04T08:27:58.671Z,101670.75
2018-07-04T08:30:44.394Z,101662.16
2018-07-04T08:33:30.263Z,101667.05
2018-07-04T08:36:16.140Z,101667.37
2018-07-04T08:39:01.755Z,101666.05
2018-07-04T08:41:47.305Z,101663.29
2018-07-04T08:44:33.068Z,101666.05
2018-07-04T08:47:18.824Z,101661.99
2018-07-04T08:49:58.522Z,101664.09
2018-07-04T08:52:44.102Z,101656.60
2018-07-04T08:55:30.063Z,101660.80
2018-07-04T08:58:15.576Z,101656.34
2018-07-04T09:01:01.259Z,101658.30
2018-07-04T09:03:46.963Z,101655.82
2018-07-04T09:06:32.723Z,101652.12
2018-07-04T09:09:18.401Z,101648.66
2018-07-04T09:12:04.029Z,101645.32
2018-07-04T09:14:49.501Z,101652.88
2018-07-04T09:17:35.229Z,101656.73
2018-07-04T09:20:15.160Z,101647.77
2018-07-04T09:23:00.803Z,101645.12
2018-07-04T09:25:46.459Z,101646.34
2018-07-04T09:28:32.244Z,101640.14
2018-07-04T09:31:17.716Z,101639.98
2018-07-04T09:33:57.354Z,101637.97
2018-07-04T09:36:37.256Z,101636.42
2018-07-04T09:39:17.029Z,101639.77
2018-07-04T09:42:03.043Z,101634.23
2018-07-04T09:44:48.567Z,101632.52
2018-07-04T09:47:34.235Z,101629.19
2018-07-04T09:50:19.962Z,101633.02
2018-07-04T09:53:05.655Z,101629.06
2018-07-04T09:55:51.463Z,101629.09
2018-07-04T09:58:37.255Z,101631.74
2018-07-04T10:01:25.345Z,101625.50
2018-07-04T10:04:11.176Z,101626.66
2018-07-04T10:06:56.695Z,101624.47
2018-07-04T10:09:42.571Z,101620.55
2018-07-04T10:12:28.254Z,101617.59
2018-07-04T10:15:13.696Z,101611.28
2018-07-04T10:17:59.240Z,101607.89
2018-07-04T10:20:45.567Z,101611.17
2018-07-04T10:23:25.402Z,101617.41
2018-07-04T10:26:11.588Z,101607.63
2018-07-04T10:28:57.173Z,101597.67
2018-07-04T10:31:42.998Z,101598.20
2018-07-04T10:34:28.741Z,101598.45
2018-07-04T10:37:14.407Z,101599.43
2018-07-04T10:39:54.234Z,101593.58
2018-07-04T10:42:39.827Z,101590.92
2018-07-04T10:45:31.645Z,101586.76
2018-07-04T10:48:17.298Z,101591.11
2018-07-04T10:51:02.855Z,101589.67
2018-07-04T10:53:48.503Z,101589.73
2018-07-04T10:56:34.211Z,101587.88
2018-07-04T10:59:14.103Z,101584.77
2018-07-04T11:01:59.903Z,101583.27
2018-07-04T11:04:45.520Z,101585.22
2018-07-04T11:07:31.315Z,101577.84
2018-07-04T11:10:17.084Z,101583.17
2018-07-04T11:13:02.936Z,101578.12
2018-07-04T11:15:48.570Z,101571.90
2018-07-04T11:18:34.297Z,101562.13
2018-07-04T11:21:20.028Z,101566.29
2018-07-04T11:24:05.759Z,101563.28
2018-07-04T11:26:51.491Z,101553.57
2018-07-04T11:29:37.598Z,101561.16
2018-07-04T11:32:23.128Z,101559.27
2018-07-04T11:35:08.816Z,101556.92
2018-07-04T11:37:54.339Z,101551.93
2018-07-04T11:40:34.189Z,101553.31
2018-07-04T11:43:20.084Z,101551.30
2018-07-04T11:45:59.742Z,101548.52
2018-07-04T11:48:27.363Z,101542.12
2018-07-04T11:50:55.374Z,101536.92
2018-07-04T11:53:22.564Z,101548.32
2018-07-04T11:55:49.867Z,101554.23
2018-07-04T11:58:16.938Z,101555.32
2018-07-04T12:00:44.616Z,101553.33
2018-07-04T12:03:16.556Z,101551.34
2018-07-04T12:06:02.325Z,101544.92
2018-07-04T12:08:29.328Z,101555.09
2018-07-04T12:10:56.893Z,101554.57
2018-07-04T12:13:25.143Z,101542.95
2018-07-04T12:15:52.547Z,101539.88
2018-07-04T12:18:19.480Z,101534.45
2018-07-04T12:20:46.498Z,101537.34
2018-07-04T12:23:14.011Z,101539.81
2018-07-04T12:25:41.877Z,101532.18
2018-07-04T12:28:08.844Z,101543.30
2018-07-04T12:30:35.812Z,101535.46
2018-07-04T12:33:03.163Z,101529.31
2018-07-04T12:35:30.169Z,101525.90
2018-07-04T12:37:57.158Z,101520.96
2018-07-04T12:40:24.244Z,101520.48
2018-07-04T12:42:51.162Z,101512.91
2018-07-04T12:45:24.335Z,101521.36
2018-07-04T12:47:51.402Z,101507.34
2018-07-04T12:50:31.967Z,101517.95
2018-07-04T12:52:58.939Z,101507.81
2018-07-04T12:55:44.555Z,101505.66
2018-07-04T12:58:30.416Z,101506.50
2018-07-04T13:01:16.172Z,101490.25
2018-07-04T13:03:56.103Z,101488.64
2018-07-04T13:06:41.759Z,101491.98
2018-07-04T13:09:27.240Z,101482.98
2018-07-04T13:12:13.090Z,101487.70
2018-07-04T13:14:58.652Z,101487.27
2018-07-04T13:17:44.384Z,101485.41
2018-07-04T13:20:30.258Z,101477.75
2018-07-04T13:23:16.028Z,101482.05
2018-07-04T13:26:01.792Z,101485.47
2018-07-04T13:28:47.447Z,101474.97
2018-07-04T13:31:33.087Z,101477.89
2018-07-04T13:34:18.868Z,101473.28
2018-07-04T13:37:04.712Z,101467.03
2018-07-04T13:39:50.371Z,101470.08
2018-07-04T13:42:30.246Z,101475.64
2018-07-04T13:45:16.055Z,101476.95
2018-07-04T13:48:01.589Z,101469.05
2018-07-04T13:50:41.400Z,101470.47
2018-07-04T13:53:27.244Z,101470.22
2018-07-04T13:56:12.911Z,101459.34
2018-07-04T13:58:58.738Z,101466.17
2018-07-04T14:01:44.423Z,101463.27
2018-07-04T14:04:30.043Z,101461.98
2018-07-04T14:07:15.900Z,101458.56
2018-07-04T14:10:01.335Z,101464.14
2018-07-04T14:12:41.258Z,101461.53
2018-07-04T14:15:26.856Z,101459.66
2018-07-04T14:18:12.403Z,101470.05
2018-07-04T14:20:58.175Z,101465.57
2018-07-04T14:23:43.832Z,101462.46
2018-07-04T14:26:29.502Z,101473.50
2018-07-04T14:29:15.189Z,101465.75
2018-07-04T14:31:55.043Z,101466.38
2018-07-04T14:34:34.836Z,101459.84
2018-07-04T14:37:20.366Z,101459.81
2018-07-04T14:40:06.011Z,101457.52
2018-07-04T14:42:51.567Z,101461.02
2018-07-04T14:45:43.143Z,101456.27
2018-07-04T14:48:28.475Z,101461.09
2018-07-04T14:51:14.511Z,101448.22
2018-07-04T14:54:00.371Z,101446.27
2018-07-04T14:56:45.856Z,101443.36
2018-07-04T14:59:31.503Z,101444.15
2018-07-04T15:02:17.128Z,101441.92
2018-07-04T15:05:02.544Z,101441.98
2018-07-04T15:07:48.068Z,101440.31
2018-07-04T15:10:33.724Z,101438.76
2018-07-04T15:13:19.380Z,101437.16
2018-07-04T15:16:04.901Z,101436.40
2018-07-04T15:18:44.727Z,101432.59
2018-07-04T15:21:30.371Z,101423.59
2018-07-04T15:24:16.147Z,101424.91
2018-07-04T15:27:01.697Z,101421.62
2018-07-04T15:29:41.606Z,101420.08
2018-07-04T15:32:27.309Z,101424.33
2018-07-04T15:35:12.912Z,101422.67
2018-07-04T15:37:58.598Z,101416.81
2018-07-04T15:40:44.124Z,101412.78
2018-07-04T15:43:29.716Z,101413.50
2018-07-04T15:46:15.428Z,101404.85
2018-07-04T15:49:00.980Z,101404.73
2018-07-04T15:51:46.655Z,101409.15
2018-07-04T15:54:32.197Z,101408.61
2018-07-04T15:57:17.909Z,101406.20
2018-07-04T16:00:03.408Z,101411.84
2018-07-04T16:02:49.008Z,101404.52
2018-07-04T16:05:34.643Z,101400.27
2018-07-04T16:08:20.604Z,101397.22
2018-07-04T16:11:06.426Z,101397.54
2018-07-04T16:13:52.248Z,101396.73
2018-07-04T16:16:37.968Z,101394.11
2018-07-04T16:19:23.578Z,101393.57
2018-07-04T16:22:03.746Z,101430.37
2018-07-04T16:24:43.686Z,101383.45
2018-07-04T16:27:29.288Z,101383.34
2018-07-04T16:30:15.077Z,101389.27
2018-07-04T16:32:55.077Z,101386.73
2018-07-04T16:35:40.951Z,101387.63
2018-07-04T16:38:26.546Z,101386.31
2018-07-04T16:41:06.461Z,101386.75
2018-07-04T16:43:52.155Z,101383.86
2018-07-04T16:46:37.891Z,101388.80
2018-07-04T16:49:23.557Z,101385.73
2018-07-04T16:52:09.118Z,101393.95
2018-07-04T16:54:54.919Z,101390.02
2018-07-04T16:57:40.519Z,101390.72
2018-07-04T17:00:26.128Z,101386.69
2018-07-04T17:03:11.826Z,101393.59
2018-07-04T17:05:57.534Z,101400.80
2018-07-04T17:08:43.186Z,101394.11
2018-07-04T17:11:29.008Z,101403.52
2018-07-04T17:14:14.635Z,101394.54
2018-07-04T17:17:00.437Z,101393.30
2018-07-04T17:19:45.934Z,101405.63
2018-07-04T17:22:31.742Z,101400.47
2018-07-04T17:25:17.499Z,101401.03
2018-07-04T17:28:03.017Z,101405.03
2018-07-04T17:30:48.708Z,101397.67
2018-07-04T17:33:34.527Z,101401.28
2018-07-04T17:36:14.384Z,101396.52
2018-07-04T17:39:00.139Z,101407.19
2018-07-04T17:41:45.907Z,101404.15
2018-07-04T17:44:31.568Z,101412.81
2018-07-04T17:47:17.212Z,101412.37
2018-07-04T17:50:02.981Z,101411.86
2018-07-04T17:52:48.848Z,101415.62
2018-07-04T17:55:28.788Z,101423.55
2018-07-04T17:58:14.616Z,101417.78
2018-07-04T18:01:00.456Z,101414.81
2018-07-04T18:03:45.850Z,101419.52
2018-07-04T18:06:31.376Z,101418.76
2018-07-04T18:09:17.100Z,101424.88
2018-07-04T18:12:02.803Z,101419.08
2018-07-04T18:14:48.352Z,101429.91
2018-07-04T18:17:34.351Z,101430.19
2018-07-04T18:20:20.107Z,101425.89
2018-07-04T18:23:05.937Z,101427.72
2018-07-04T18:25:51.421Z,101424.19
2018-07-04T18:28:37.308Z,101422.52
2018-07-04T18:31:23.052Z,101421.87
2018-07-04T18:34:08.896Z,101420.28
2018-07-04T18:36:54.482Z,101429.42
2018-07-04T18:39:40.009Z,101429.41
2018-07-04T18:42:25.863Z,101429.15
2018-07-04T18:45:11.508Z,101422.59
2018-07-04T18:47:57.482Z,101424.84
2018-07-04T18:50:43.219Z,101427.76
2018-07-04T18:53:28.791Z,101433.14
2018-07-04T18:56:14.833Z,101420.44
2018-07-04T18:59:01.301Z,101416.75
2018-07-04T19:01:46.911Z,101417.50
2018-07-04T19:04:32.582Z,101422.59
2018-07-04T19:07:18.281Z,101416.06
2018-07-04T19:10:05.539Z,101417.33
2018-07-04T19:12:51.094Z,101414.23
2018-07-04T19:15:36.761Z,101412.34
2018-07-04T19:18:16.548Z,101424.21
2018-07-04T19:21:02.193Z,101421.27
2018-07-04T19:23:47.900Z,101415.88
2018-07-04T19:26:33.588Z,101414.53
2018-07-04T19:29:13.358Z,101416.93
2018-07-04T19:31:58.748Z,101412.64
2018-07-04T19:34:44.261Z,101413.16
2018-07-04T19:37:30.007Z,101411.27
2018-07-04T19:40:15.756Z,101417.26
2018-07-04T19:42:55.688Z,101423.48
2018-07-04T19:45:47.264Z,101418.98
2018-07-04T19:48:32.932Z,101425.41
2018-07-04T19:51:18.659Z,101433.83
2018-07-04T19:54:04.252Z,101432.54
2018-07-04T19:56:50.070Z,101433.34
2018-07-04T19:59:35.636Z,101432.12
2018-07-04T20:02:21.319Z,101431.21
2018-07-04T20:05:07.139Z,101438.98
2018-07-04T20:07:52.871Z,101435.44
2018-07-04T20:10:38.716Z,101435.90
2018-07-04T20:13:18.713Z,101441.28
2018-07-04T20:16:04.452Z,101446.66
2018-07-04T20:18:44.181Z,101444.41
2018-07-04T20:21:29.773Z,101447.98
2018-07-04T20:24:15.427Z,101452.89
2018-07-04T20:27:01.056Z,101454.33
2018-07-04T20:29:46.711Z,101455.19
2018-07-04T20:32:32.650Z,101455.19
2018-07-04T20:35:18.182Z,101458.52
2018-07-04T20:38:03.875Z,101456.42
2018-07-04T20:40:49.633Z,101448.25
2018-07-04T20:43:35.398Z,101457.55
2018-07-04T20:46:20.949Z,101454.82
2018-07-04T20:49:06.740Z,101462.34
2018-07-04T20:51:46.657Z,101458.03
2018-07-04T20:54:32.347Z,101459.01
2018-07-04T20:57:18.275Z,101458.81
2018-07-04T21:00:04.082Z,101459.41
2018-07-04T21:02:50.483Z,101450.50
2018-07-04T21:05:36.247Z,101461.97
2018-07-04T21:08:15.898Z,101468.09
2018-07-04T21:10:55.769Z,101465.94
2018-07-04T21:13:41.413Z,101460.78
2018-07-04T21:16:27.251Z,101465.14
2018-07-04T21:19:12.724Z,101463.75
2018-07-04T21:21:58.413Z,101465.91
2018-07-04T21:24:44.155Z,101462.31
2018-07-04T21:27:29.966Z,101475.14
2018-07-04T21:30:10.165Z,101480.27
2018-07-04T21:32:55.892Z,101477.48
2018-07-04T21:35:41.612Z,101485.09
2018-07-04T21:38:27.501Z,101484.95
2018-07-04T21:41:13.443Z,101484.94
2018-07-04T21:43:59.111Z,101481.62
2018-07-04T21:46:44.805Z,101480.22
2018-07-04T21:49:30.832Z,101472.10
2018-07-04T21:52:10.913Z,101469.92
2018-07-04T21:54:56.705Z,101466.80
2018-07-04T21:57:42.253Z,101466.38
2018-07-04T22:00:28.228Z,101463.98
2018-07-04T22:03:13.993Z,101462.98
2018-07-04T22:05:59.626Z,101468.45
2018-07-04T22:08:45.289Z,101462.80
2018-07-04T22:11:31.064Z,101462.33
2018-07-04T22:14:16.775Z,101460.58
2018-07-04T22:17:02.591Z,101455.09
2018-07-04T22:19:48.154Z,101457.25
2018-07-04T22:22:34.026Z,101455.88
2018-07-04T22:25:19.719Z,101461.58
2018-07-04T22:28:05.256Z,101460.61
2018-07-04T22:30:50.973Z,101458.41
2018-07-04T22:33:36.866Z,101457.64
2018-07-04T22:36:22.681Z,101461.41
2018-07-04T22:39:04.142Z,101456.98
2018-07-04T22:41:49.731Z,101455.19
2018-07-04T22:44:35.609Z,101456.90
2018-07-04T22:47:21.272Z,101458.47
2018-07-04T22:50:06.956Z,101457.95
2018-07-04T22:52:52.569Z,101467.20
2018-07-04T22:55:38.415Z,101459.38
2018-07-04T22:58:24.239Z,101456.24
2018-07-04T23:01:10.049Z,101465.38
2018-07-04T23:03:56.043Z,101467.90
2018-07-04T23:06:41.701Z,101465.61
2018-07-04T23:09:27.475Z,101465.66
2018-07-04T23:12:13.265Z,101476.66
2018-07-04T23:14:59.015Z,101472.17
2018-07-04T23:17:44.980Z,101471.42
2018-07-04T23:20:30.691Z,101473.08
2018-07-04T23:23:10.548Z,101484.11
2018-07-04T23:25:50.346Z,101484.56
2018-07-04T23:28:35.957Z,101484.53
2018-07-04T23:31:21.553Z,101476.17
2018-07-04T23:34:01.436Z,101485.63
2018-07-04T23:36:47.072Z,101486.22
2018-07-04T23:39:32.800Z,101481.33
2018-07-04T23:42:18.683Z,101480.71
2018-07-04T23:45:04.441Z,101484.05
2018-07-04T23:47:50.043Z,101482.67
2018-07-04T23:50:35.737Z,101478.38
2018-07-04T23:53:15.498Z,101483.84
2018-07-04T23:56:01.055Z,101480.67
2018-07-04T23:58:41.011Z,101486.27
